Time;durP1;ratioP1;P1;durP2;ratioP2;P2;SDS_P1;SDS_P2;PMS_P1;PMS_P2;Temp;Humidity;BMP_temperature;BMP_pressure;BME280_temperature;BME280_humidity;BME280_pressure;Samples;Min_cycle;Max_cycle;Signal;HPM_P1;HPM_P2
2021/06/17 00:00:39;;;;;;;7.18;6.15;;;17.10;99.90;;;;;;4142435;28;20034;-63
2021/06/17 00:02:40;;;;;;;6.55;5.95;;;17.10;99.90;;;;;;4149027;28;20038;-61
2021/06/17 00:04:42;;;;;;;7.85;5.85;;;17.00;99.90;;;;;;4156727;28;20065;-66
2021/06/17 00:06:43;;;;;;;9.15;5.97;;;17.00;99.90;;;;;;4156289;28;20103;-65
2021/06/17 00:08:44;;;;;;;6.57;5.65;;;17.00;99.90;;;;;;4156335;28;20057;-62
2021/06/17 00:10:48;;;;;;;8.88;5.90;;;17.00;99.90;;;;;;4156006;28;20053;-60
2021/06/17 00:12:50;;;;;;;8.05;5.90;;;17.00;99.90;;;;;;4155857;28;20087;-64
2021/06/17 00:14:51;;;;;;;8.02;6.20;;;17.00;99.90;;;;;;4157258;28;20038;-63
2021/06/17 00:16:53;;;;;;;13.43;6.70;;;16.90;99.90;;;;;;4156177;28;20033;-61
2021/06/17 00:18:54;;;;;;;7.03;5.35;;;16.80;99.90;;;;;;4157650;28;20076;-64
2021/06/17 00:20:56;;;;;;;7.50;5.72;;;16.80;99.90;;;;;;4155579;28;20156;-61
2021/06/17 00:22:58;;;;;;;6.53;5.43;;;16.80;99.90;;;;;;4156242;28;20557;-63
2021/06/17 00:24:59;;;;;;;8.07;5.25;;;16.70;99.90;;;;;;4155796;28;20420;-63
2021/06/17 00:27:00;;;;;;;5.90;5.13;;;16.70;99.90;;;;;;4157280;28;20071;-61
2021/06/17 00:29:01;;;;;;;5.90;5.07;;;16.70;99.90;;;;;;4156113;28;20049;-64
2021/06/17 00:31:02;;;;;;;8.40;5.57;;;16.70;99.90;;;;;;4156551;28;21550;-67
2021/06/17 00:33:05;;;;;;;7.88;5.32;;;16.70;99.90;;;;;;4155987;28;20048;-65
2021/06/17 00:35:08;;;;;;;6.75;5.47;;;16.70;99.90;;;;;;4139403;28;20080;-65
2021/06/17 00:37:09;;;;;;;8.23;5.75;;;16.70;99.90;;;;;;4155963;28;20033;-64
2021/06/17 00:39:10;;;;;;;5.25;4.75;;;16.70;99.90;;;;;;4155942;28;20409;-67
2021/06/17 00:41:12;;;;;;;6.93;5.43;;;16.70;99.90;;;;;;4144353;28;20034;-64
2021/06/17 00:43:13;;;;;;;7.57;5.93;;;16.70;99.90;;;;;;4139712;28;20557;-63
2021/06/17 00:45:45;;;;;;;6.60;5.18;;;16.60;99.90;;;;;;4140557;28;20084;-66
2021/06/17 00:47:46;;;;;;;8.73;5.22;;;16.60;99.90;;;;;;4132599;28;20047;-63
2021/06/17 00:49:47;;;;;;;7.05;5.70;;;16.60;99.90;;;;;;4122977;28;20463;-66
2021/06/17 00:51:48;;;;;;;8.13;6.03;;;16.50;99.90;;;;;;4138849;28;20076;-64
2021/06/17 00:53:50;;;;;;;10.00;5.45;;;16.50;99.90;;;;;;4140225;28;20026;-65
2021/06/17 00:55:51;;;;;;;7.80;5.63;;;16.50;99.90;;;;;;4138865;28;20030;-64
2021/06/17 00:57:52;;;;;;;10.35;5.50;;;16.50;99.90;;;;;;4149486;28;20033;-65
2021/06/17 00:59:54;;;;;;;6.38;5.70;;;16.50;99.90;;;;;;4155677;28;20076;-65
2021/06/17 01:01:55;;;;;;;5.82;5.10;;;16.40;99.90;;;;;;4155883;28;20090;-66
2021/06/17 01:03:56;;;;;;;10.95;5.93;;;16.40;99.90;;;;;;4137085;28;20034;-63
2021/06/17 01:05:57;;;;;;;8.15;5.47;;;16.40;99.90;;;;;;4157283;28;20033;-65
2021/06/17 01:08:23;;;;;;;7.18;5.75;;;16.30;99.90;;;;;;4154264;28;20667;-63
2021/06/17 01:10:42;;;;;;;8.40;6.50;;;16.30;99.90;;;;;;4157322;28;20025;-66
2021/06/17 01:13:22;;;;;;;9.98;6.10;;;16.30;99.90;;;;;;4155447;28;20075;-66
2021/06/17 01:15:23;;;;;;;7.95;5.88;;;16.30;99.90;;;;;;4142910;28;20449;-65
2021/06/17 01:17:26;;;;;;;6.90;5.70;;;16.20;99.90;;;;;;4154545;28;20064;-65
2021/06/17 01:19:30;;;;;;;6.43;5.43;;;16.10;99.90;;;;;;4157110;28;20091;-64
2021/06/17 01:21:55;;;;;;;8.43;6.20;;;16.10;99.90;;;;;;4155098;28;20456;-63
2021/06/17 01:24:33;;;;;;;8.32;6.13;;;16.10;99.90;;;;;;4156462;28;20071;-63
2021/06/17 01:26:55;;;;;;;7.63;5.68;;;16.10;99.90;;;;;;4154531;28;20535;-64
2021/06/17 01:28:59;;;;;;;9.27;5.45;;;16.00;99.90;;;;;;4137341;28;20053;-63
2021/06/17 01:31:03;;;;;;;8.52;6.10;;;16.10;99.90;;;;;;4156119;28;20083;-66
2021/06/17 01:33:06;;;;;;;9.02;5.68;;;16.10;99.90;;;;;;4155054;28;20104;-65
2021/06/17 01:35:09;;;;;;;9.02;5.43;;;16.00;99.90;;;;;;4155236;28;20292;-62
2021/06/17 01:37:14;;;;;;;6.68;5.18;;;16.00;99.90;;;;;;4156342;28;20501;-64
2021/06/17 01:39:18;;;;;;;7.90;5.55;;;16.00;99.90;;;;;;4154883;28;20502;-65
2021/06/17 01:41:21;;;;;;;6.85;5.43;;;16.00;99.90;;;;;;4156650;28;20017;-64
2021/06/17 01:43:24;;;;;;;8.30;5.88;;;16.00;99.90;;;;;;4140441;28;20037;-64
2021/06/17 01:45:26;;;;;;;10.75;4.75;;;15.90;99.90;;;;;;4138986;28;20030;-63
2021/06/17 01:47:29;;;;;;;7.43;5.55;;;15.90;99.90;;;;;;4138626;28;20088;-64
2021/06/17 01:49:31;;;;;;;7.97;5.07;;;15.90;99.90;;;;;;4140436;28;20076;-62
2021/06/17 01:51:33;;;;;;;10.70;5.95;;;15.90;99.90;;;;;;4138713;28;20502;-60
2021/06/17 01:53:37;;;;;;;5.78;5.07;;;15.80;99.90;;;;;;4140330;28;20088;-64
2021/06/17 01:55:42;;;;;;;8.70;5.30;;;15.80;99.90;;;;;;4137627;28;20041;-63
2021/06/17 01:57:45;;;;;;;7.22;5.68;;;15.70;99.90;;;;;;4140009;28;20030;-66
2021/06/17 01:59:48;;;;;;;6.82;4.80;;;15.70;99.90;;;;;;4120607;28;20538;-63
2021/06/17 02:01:57;;;;;;;8.38;5.85;;;15.70;99.90;;;;;;4139110;28;20796;-64
2021/06/17 02:04:00;;;;;;;7.03;4.90;;;15.60;99.90;;;;;;4138740;28;20091;-65
2021/06/17 02:06:01;;;;;;;6.68;5.18;;;15.60;99.90;;;;;;4139510;28;20494;-65
2021/06/17 02:08:07;;;;;;;6.22;5.35;;;15.60;99.90;;;;;;4138006;28;20158;-64
2021/06/17 02:10:09;;;;;;;5.68;5.07;;;15.60;99.90;;;;;;4140038;28;20030;-66
2021/06/17 02:12:10;;;;;;;6.68;5.25;;;15.60;99.90;;;;;;4137676;28;20046;-64
2021/06/17 02:14:13;;;;;;;6.03;4.88;;;15.60;99.90;;;;;;4138435;28;20584;-67
2021/06/17 02:16:16;;;;;;;9.07;5.63;;;15.60;99.90;;;;;;4138304;28;20046;-66
2021/06/17 02:18:25;;;;;;;9.82;5.72;;;15.60;99.90;;;;;;4138877;28;20025;-67
2021/06/17 02:20:27;;;;;;;7.65;4.72;;;15.50;99.90;;;;;;4139437;28;20030;-64
2021/06/17 02:22:28;;;;;;;6.53;4.80;;;15.50;99.90;;;;;;4138225;28;20116;-62
2021/06/17 02:24:34;;;;;;;8.02;5.10;;;15.50;99.90;;;;;;4140133;28;20076;-61
2021/06/17 02:26:39;;;;;;;5.95;5.00;;;15.60;99.90;;;;;;4140635;28;20393;-58
2021/06/17 02:28:44;;;;;;;6.05;5.18;;;15.60;99.90;;;;;;4142312;28;20034;-65
2021/06/17 02:30:47;;;;;;;6.80;5.43;;;15.60;99.90;;;;;;4141520;28;20025;-64
2021/06/17 02:32:50;;;;;;;7.53;5.50;;;15.60;99.90;;;;;;4142679;28;20045;-64
2021/06/17 02:34:53;;;;;;;5.47;4.72;;;15.60;99.90;;;;;;4141019;28;20022;-63
2021/06/17 02:36:56;;;;;;;6.15;4.75;;;15.60;99.90;;;;;;4157057;28;20099;-61
2021/06/17 02:39:01;;;;;;;9.85;5.25;;;15.60;99.90;;;;;;4157320;28;20067;-64
2021/06/17 02:41:09;;;;;;;7.70;5.10;;;15.60;99.90;;;;;;4158151;28;20390;-65
2021/06/17 02:43:15;;;;;;;6.75;4.85;;;15.60;99.90;;;;;;4157033;28;20071;-62
2021/06/17 02:45:17;;;;;;;8.43;5.43;;;15.70;99.90;;;;;;4158935;28;20052;-65
2021/06/17 02:47:18;;;;;;;7.20;4.68;;;15.70;99.90;;;;;;4156518;28;20808;-64
2021/06/17 02:49:20;;;;;;;7.75;5.38;;;15.70;99.90;;;;;;4158306;28;20064;-65
2021/06/17 02:51:22;;;;;;;5.47;4.80;;;15.70;99.90;;;;;;4157557;28;20473;-64
2021/06/17 02:53:24;;;;;;;7.20;5.18;;;15.70;99.90;;;;;;4158411;28;20029;-66
2021/06/17 02:55:26;;;;;;;8.55;5.40;;;15.70;99.90;;;;;;4157499;28;20071;-62
2021/06/17 02:57:48;;;;;;;6.32;4.85;;;15.70;99.90;;;;;;4152031;28;20495;-64
2021/06/17 02:59:58;;;;;;;9.55;5.28;;;15.60;99.90;;;;;;4140911;28;20127;-63
2021/06/17 03:02:11;;;;;;;6.00;4.95;;;15.60;99.90;;;;;;4141974;28;20034;-64
2021/06/17 03:04:23;;;;;;;9.13;5.50;;;15.50;99.90;;;;;;4140195;28;20449;-64
2021/06/17 03:06:41;;;;;;;9.43;5.75;;;15.50;99.90;;;;;;4142163;28;20018;-63
2021/06/17 03:09:07;;;;;;;11.52;6.18;;;15.50;99.90;;;;;;4139797;28;20379;-62
2021/06/17 03:11:11;;;;;;;10.40;5.63;;;15.40;99.90;;;;;;4142335;28;20030;-64
2021/06/17 03:13:13;;;;;;;11.38;5.63;;;15.40;99.90;;;;;;4141009;28;20080;-63
2021/06/17 03:15:15;;;;;;;8.52;5.40;;;15.30;99.90;;;;;;4141823;28;20042;-65
2021/06/17 03:17:19;;;;;;;8.82;5.63;;;15.30;99.90;;;;;;4140045;28;20038;-65
2021/06/17 03:19:21;;;;;;;9.43;6.87;;;15.20;99.90;;;;;;4142273;28;20084;-65
2021/06/17 03:21:26;;;;;;;14.43;6.07;;;15.20;99.90;;;;;;4140447;28;20049;-63
2021/06/17 03:23:30;;;;;;;9.20;5.88;;;15.10;99.90;;;;;;4156099;28;20049;-65
2021/06/17 03:25:33;;;;;;;10.48;6.80;;;15.10;99.90;;;;;;4156860;28;20029;-62
2021/06/17 03:27:37;;;;;;;9.97;5.87;;;15.00;99.90;;;;;;4157207;28;20025;-66
2021/06/17 03:29:50;;;;;;;13.63;7.00;;;15.00;99.90;;;;;;4157363;28;20088;-63
2021/06/17 03:31:52;;;;;;;15.93;7.27;;;15.00;99.90;;;;;;4141768;28;20053;-62
2021/06/17 03:33:55;;;;;;;14.37;6.90;;;15.00;99.90;;;;;;4140347;28;20030;-62
2021/06/17 03:35:57;;;;;;;10.40;6.20;;;15.00;99.90;;;;;;4140106;28;20030;-62
2021/06/17 03:38:01;;;;;;;13.60;6.15;;;15.10;99.90;;;;;;4154950;28;20037;-62
2021/06/17 03:40:04;;;;;;;10.10;7.00;;;15.00;99.90;;;;;;4156021;28;20041;-62
2021/06/17 03:42:08;;;;;;;9.90;6.45;;;15.10;99.90;;;;;;4158254;28;20029;-64
2021/06/17 03:44:11;;;;;;;9.47;6.03;;;15.10;99.90;;;;;;4156583;28;20029;-62
2021/06/17 03:46:14;;;;;;;8.20;6.53;;;15.10;99.90;;;;;;4154876;28;20549;-63
2021/06/17 03:48:16;;;;;;;7.53;5.90;;;15.10;99.90;;;;;;4146466;28;20050;-65
2021/06/17 03:50:21;;;;;;;7.60;5.67;;;15.10;99.90;;;;;;4141836;28;20041;-65
2021/06/17 03:52:23;;;;;;;10.37;6.33;;;15.10;99.90;;;;;;4139847;28;20037;-66
2021/06/17 03:54:29;;;;;;;9.00;5.57;;;15.20;99.90;;;;;;4150956;28;20037;-64
2021/06/17 03:56:30;;;;;;;9.37;6.20;;;15.20;99.90;;;;;;4156268;28;20073;-66
2021/06/17 03:58:31;;;;;;;11.50;6.67;;;15.20;99.90;;;;;;4157233;28;20703;-66
2021/06/17 04:00:33;;;;;;;8.03;5.80;;;15.30;99.90;;;;;;4155969;28;20496;-65
2021/06/17 04:02:34;;;;;;;9.50;6.40;;;15.30;99.90;;;;;;4156388;28;20091;-67
2021/06/17 04:04:36;;;;;;;10.63;6.03;;;15.40;99.90;;;;;;4155441;28;20115;-66
2021/06/17 04:06:38;;;;;;;11.80;5.57;;;15.50;99.90;;;;;;4147057;28;20030;-67
2021/06/17 04:08:44;;;;;;;9.48;6.00;;;15.60;99.90;;;;;;4139954;28;20058;-64
2021/06/17 04:10:46;;;;;;;7.53;5.45;;;15.70;99.90;;;;;;4139747;28;20088;-65
2021/06/17 04:12:50;;;;;;;7.15;5.28;;;15.80;99.90;;;;;;4140743;28;20046;-64
2021/06/17 04:14:54;;;;;;;10.27;5.38;;;15.90;99.90;;;;;;4139826;28;20024;-67
2021/06/17 04:16:56;;;;;;;7.82;5.18;;;16.00;99.90;;;;;;4154836;28;20030;-63
2021/06/17 04:18:58;;;;;;;10.98;5.30;;;16.20;99.90;;;;;;4139638;28;20038;-62
2021/06/17 04:21:00;;;;;;;12.23;7.20;;;16.30;99.90;;;;;;4141059;28;20453;-63
2021/06/17 04:23:04;;;;;;;13.73;5.68;;;16.30;99.90;;;;;;4139351;28;20564;-66
2021/06/17 04:25:08;;;;;;;13.48;7.13;;;16.40;99.90;;;;;;4141051;28;20137;-64
2021/06/17 04:27:10;;;;;;;8.38;5.63;;;16.40;99.90;;;;;;4141487;28;20046;-58
2021/06/17 04:29:14;;;;;;;10.38;5.38;;;16.50;99.90;;;;;;4139703;28;20769;-62
2021/06/17 04:31:16;;;;;;;8.95;6.10;;;16.60;99.90;;;;;;4144434;28;20076;-61
2021/06/17 04:33:21;;;;;;;9.88;6.03;;;16.60;99.90;;;;;;4141985;28;20034;-60
2021/06/17 04:35:23;;;;;;;10.55;6.35;;;16.70;99.90;;;;;;4139030;28;20635;-59
2021/06/17 04:37:27;;;;;;;7.88;4.97;;;16.60;99.90;;;;;;4140658;28;20029;-58
2021/06/17 04:39:28;;;;;;;7.72;5.60;;;16.70;99.90;;;;;;4138363;28;20038;-60
2021/06/17 04:41:31;;;;;;;7.40;5.85;;;16.90;99.90;;;;;;4139101;28;20490;-63
2021/06/17 04:43:34;;;;;;;12.90;5.53;;;17.00;99.90;;;;;;4138912;28;20474;-61
2021/06/17 04:45:36;;;;;;;15.05;6.10;;;17.00;99.90;;;;;;4139436;28;20103;-65
2021/06/17 04:47:39;;;;;;;6.97;5.47;;;17.10;99.90;;;;;;4138064;28;20076;-66
2021/06/17 04:49:41;;;;;;;7.20;6.00;;;17.20;99.90;;;;;;4139199;28;20045;-64
2021/06/17 04:51:42;;;;;;;10.05;5.32;;;17.20;99.90;;;;;;4139436;28;20470;-63
2021/06/17 04:53:43;;;;;;;10.85;6.05;;;17.30;99.90;;;;;;4138642;28;20550;-64
2021/06/17 04:55:54;;;;;;;9.68;5.72;;;17.20;99.90;;;;;;4139219;28;20912;-64
2021/06/17 04:57:55;;;;;;;;;;;17.30;99.90;;;;;;4139375;28;20482;-64
2021/06/17 04:59:56;;;;;;;21.83;6.20;;;17.20;99.90;;;;;;4140519;28;19937;-64
2021/06/17 05:01:58;;;;;;;8.88;6.03;;;17.30;99.90;;;;;;4151266;28;20754;-65
2021/06/17 05:03:59;;;;;;;10.68;6.10;;;17.30;99.90;;;;;;4156422;28;20037;-60
2021/06/17 05:06:02;;;;;;;7.43;5.25;;;17.40;99.90;;;;;;4154879;28;20428;-64
2021/06/17 05:12:39;;;;;;;9.88;5.35;;;17.50;99.90;;;;;;4156616;28;20049;-63
2021/06/17 05:14:40;;;;;;;16.42;6.18;;;17.60;99.90;;;;;;4154487;28;20042;-63
2021/06/17 05:16:42;;;;;;;12.95;4.72;;;17.60;99.90;;;;;;4156026;28;20034;-61
2021/06/17 05:18:43;;;;;;;10.52;5.47;;;17.60;99.90;;;;;;4154036;28;20037;-63
2021/06/17 05:20:44;;;;;;;5.78;3.72;;;17.70;99.90;;;;;;4155114;28;20104;-63
2021/06/17 05:22:45;;;;;;;10.05;4.47;;;17.70;99.90;;;;;;4154732;28;20378;-63
2021/06/17 05:24:47;;;;;;;6.22;4.13;;;17.80;99.90;;;;;;4155721;28;20030;-61
2021/06/17 05:26:48;;;;;;;7.95;4.50;;;17.90;99.90;;;;;;4154724;28;20075;-64
2021/06/17 05:28:49;;;;;;;9.98;4.00;;;17.90;99.90;;;;;;4154876;28;20049;-66
2021/06/17 05:30:52;;;;;;;11.07;4.05;;;18.00;99.90;;;;;;4155458;28;20034;-65
2021/06/17 05:32:53;;;;;;;9.70;4.75;;;18.10;99.90;;;;;;4154597;28;20564;-62
2021/06/17 05:34:54;;;;;;;16.85;7.10;;;18.20;99.90;;;;;;4155926;28;20068;-62
2021/06/17 05:36:56;;;;;;;7.38;4.30;;;18.40;99.90;;;;;;4154132;28;20042;-62
2021/06/17 05:38:57;;;;;;;6.13;4.30;;;18.50;99.90;;;;;;4155161;28;21046;-64
2021/06/17 05:40:59;;;;;;;10.07;4.50;;;18.60;99.90;;;;;;4154879;28;20072;-64
2021/06/17 05:43:00;;;;;;;12.85;3.90;;;18.80;99.90;;;;;;4155891;28;20481;-64
2021/06/17 05:45:01;;;;;;;13.07;6.32;;;18.90;99.90;;;;;;4153770;28;20038;-65
2021/06/17 05:47:02;;;;;;;10.75;5.70;;;19.10;99.90;;;;;;4155349;28;20037;-63
2021/06/17 05:49:03;;;;;;;11.35;5.07;;;19.20;99.90;;;;;;4153824;28;20037;-65
2021/06/17 05:51:05;;;;;;;9.27;4.10;;;19.50;99.90;;;;;;4156023;28;20444;-62
2021/06/17 05:53:09;;;;;;;11.52;4.00;;;19.80;99.90;;;;;;4154252;28;20037;-64
2021/06/17 05:55:10;;;;;;;9.07;3.63;;;20.00;99.90;;;;;;4155184;28;20037;-65
2021/06/17 05:57:11;;;;;;;10.93;4.28;;;20.40;99.90;;;;;;4154678;28;20034;-62
2021/06/17 05:59:13;;;;;;;7.20;3.88;;;20.70;99.90;;;;;;4156501;28;20567;-64
2021/06/17 06:01:14;;;;;;;10.32;4.00;;;20.90;99.90;;;;;;4158936;28;20064;-66
2021/06/17 06:03:15;;;;;;;6.97;3.92;;;21.20;99.90;;;;;;4157897;28;20071;-65
2021/06/17 06:05:16;;;;;;;9.48;3.65;;;21.50;99.90;;;;;;4158244;28;20090;-64
2021/06/17 06:07:18;;;;;;;11.43;3.53;;;21.60;99.90;;;;;;4157651;28;20017;-60
2021/06/17 06:09:19;;;;;;;8.25;3.20;;;21.60;99.90;;;;;;4158483;28;20063;-63
2021/06/17 06:11:21;;;;;;;10.95;3.58;;;21.70;99.90;;;;;;4157470;28;20864;-65
2021/06/17 06:13:22;;;;;;;6.30;3.38;;;21.90;99.90;;;;;;4158238;28;20045;-64
2021/06/17 06:15:23;;;;;;;5.88;2.83;;;21.90;99.90;;;;;;4157581;28;20459;-60
2021/06/17 06:17:24;;;;;;;2.75;2.30;;;21.70;99.90;;;;;;4158924;28;20057;-64
2021/06/17 06:19:26;;;;;;;7.15;3.05;;;21.50;99.90;;;;;;4157035;28;20045;-63
2021/06/17 06:21:27;;;;;;;6.68;3.10;;;21.40;99.90;;;;;;4140877;28;20348;-61
2021/06/17 06:23:29;;;;;;;6.03;3.20;;;21.40;99.90;;;;;;4156534;28;20467;-60
2021/06/17 06:25:31;;;;;;;5.10;2.70;;;21.60;99.90;;;;;;4158728;28;20068;-63
2021/06/17 06:27:32;;;;;;;6.38;3.10;;;21.90;99.90;;;;;;4157574;28;20060;-61
2021/06/17 06:29:34;;;;;;;5.50;2.95;;;22.10;99.90;;;;;;4158859;28;20033;-61
2021/06/17 06:31:35;;;;;;;5.53;2.83;;;22.40;99.90;;;;;;4157637;28;20033;-62
2021/06/17 06:33:36;;;;;;;11.52;2.92;;;22.90;99.90;;;;;;4156665;28;20053;-62
2021/06/17 06:35:37;;;;;;;8.15;2.45;;;23.60;99.90;;;;;;4157694;28;20482;-62
2021/06/17 06:37:48;;;;;;;4.13;2.67;;;24.40;99.70;;;;;;4156345;28;20037;-63
2021/06/17 06:39:49;;;;;;;3.72;2.72;;;24.90;98.50;;;;;;4157492;28;20049;-64
2021/06/17 06:41:51;;;;;;;6.65;2.70;;;25.00;97.70;;;;;;4156201;28;20037;-61
2021/06/17 06:43:52;;;;;;;6.32;2.97;;;25.00;97.30;;;;;;4158469;28;20017;-65
2021/06/17 06:45:53;;;;;;;11.38;4.25;;;24.80;96.90;;;;;;4157116;28;20029;-61
2021/06/17 06:47:54;;;;;;;7.50;2.72;;;24.70;96.70;;;;;;4158934;28;20125;-60
2021/06/17 06:49:55;;;;;;;9.10;2.85;;;24.50;96.40;;;;;;4157459;28;20464;-62
2021/06/17 06:51:57;;;;;;;5.32;2.80;;;24.30;96.30;;;;;;4158049;28;20041;-63
2021/06/17 06:53:58;;;;;;;9.85;2.53;;;24.10;96.30;;;;;;4155370;28;20115;-61
2021/06/17 06:55:59;;;;;;;4.00;2.20;;;24.00;96.40;;;;;;4156840;28;20037;-60
2021/06/17 06:58:00;;;;;;;4.93;2.53;;;23.90;96.50;;;;;;4155994;28;20573;-62
2021/06/17 07:00:03;;;;;;;5.38;2.65;;;24.00;96.60;;;;;;4157558;28;20098;-61
2021/06/17 07:02:04;;;;;;;3.33;2.75;;;23.90;96.50;;;;;;4155987;28;20041;-64
2021/06/17 07:04:05;;;;;;;10.07;2.80;;;24.00;96.60;;;;;;4156380;28;20038;-61
2021/06/17 07:06:07;;;;;;;4.03;2.95;;;24.00;96.40;;;;;;4157418;28;20516;-65
2021/06/17 07:08:10;;;;;;;6.20;2.80;;;24.00;96.40;;;;;;4155976;28;20823;-64
2021/06/17 07:10:12;;;;;;;8.75;2.75;;;24.10;96.20;;;;;;4157357;28;20436;-64
2021/06/17 07:12:13;;;;;;;6.07;2.22;;;24.20;96.00;;;;;;4155772;28;20033;-62
2021/06/17 07:14:14;;;;;;;6.80;2.80;;;24.10;96.00;;;;;;4157022;28;20045;-64
2021/06/17 07:16:15;;;;;;;6.40;2.38;;;24.20;96.00;;;;;;4156149;28;20547;-65
2021/06/17 07:18:16;;;;;;;6.65;2.50;;;24.30;95.90;;;;;;4158084;28;20106;-64
2021/06/17 07:20:18;;;;;;;11.00;2.83;;;24.40;95.50;;;;;;4156763;28;20059;-66
2021/06/17 07:22:19;;;;;;;5.97;2.40;;;24.40;95.30;;;;;;4157796;28;20482;-64
2021/06/17 07:24:20;;;;;;;4.00;2.10;;;24.50;95.40;;;;;;4156316;28;20030;-64
2021/06/17 07:26:26;;;;;;;2.92;1.92;;;24.70;95.00;;;;;;4157686;28;20116;-65
2021/06/17 07:28:28;;;;;;;5.28;2.55;;;24.90;94.50;;;;;;4155573;28;20092;-64
2021/06/17 07:30:29;;;;;;;6.43;2.30;;;25.10;94.00;;;;;;4157791;28;20029;-64
2021/06/17 07:32:30;;;;;;;3.72;1.73;;;25.70;93.30;;;;;;4155181;28;20123;-65
2021/06/17 07:34:31;;;;;;;10.25;4.28;;;25.80;92.90;;;;;;4157679;28;20025;-66
2021/06/17 07:36:33;;;;;;;4.25;2.10;;;25.90;92.30;;;;;;4156501;28;20037;-65
2021/06/17 07:38:34;;;;;;;6.35;2.00;;;26.10;91.70;;;;;;4156790;28;20021;-64
2021/06/17 07:40:40;;;;;;;2.67;1.80;;;26.20;91.40;;;;;;4157070;28;20021;-64
2021/06/17 07:42:42;;;;;;;4.35;2.05;;;26.40;91.10;;;;;;4156333;28;20508;-65
2021/06/17 07:44:46;;;;;;;3.22;2.20;;;26.50;90.30;;;;;;4156810;28;20200;-64
2021/06/17 07:46:47;;;;;;;3.78;2.33;;;26.00;89.70;;;;;;4155503;28;20045;-61
2021/06/17 07:48:49;;;;;;;4.15;2.00;;;26.00;90.00;;;;;;4139710;28;20036;-65
2021/06/17 07:50:50;;;;;;;5.28;2.20;;;26.30;89.60;;;;;;4156232;28;20038;-64
2021/06/17 07:52:51;;;;;;;2.85;2.13;;;26.60;88.50;;;;;;4156448;28;20092;-64
2021/06/17 07:54:52;;;;;;;3.72;2.22;;;26.70;87.90;;;;;;4155108;28;20038;-64
2021/06/17 07:56:56;;;;;;;2.72;2.33;;;26.60;87.30;;;;;;4156652;28;20054;-61
2021/06/17 07:58:58;;;;;;;5.15;2.33;;;26.40;86.50;;;;;;4155502;28;20475;-62
2021/06/17 08:01:00;;;;;;;4.93;2.33;;;26.30;86.60;;;;;;4157271;28;20033;-63
2021/06/17 08:03:01;;;;;;;8.30;2.33;;;26.10;86.50;;;;;;4154979;28;20030;-63
2021/06/17 08:05:03;;;;;;;2.22;2.03;;;25.90;86.50;;;;;;4156758;28;20448;-64
2021/06/17 08:07:04;;;;;;;2.97;2.67;;;25.90;86.50;;;;;;4155117;28;20451;-64
2021/06/17 08:09:05;;;;;;;2.58;2.10;;;26.00;86.00;;;;;;4156876;28;20498;-65
2021/06/17 08:11:07;;;;;;;4.78;2.42;;;25.90;85.90;;;;;;4156362;28;20473;-64
2021/06/17 08:13:08;;;;;;;7.43;3.13;;;25.90;86.20;;;;;;4156022;28;20053;-65
2021/06/17 08:15:10;;;;;;;6.03;2.45;;;26.10;86.20;;;;;;4156442;28;20033;-64
2021/06/17 08:17:11;;;;;;;6.35;2.17;;;26.50;86.00;;;;;;4155641;28;20091;-65
2021/06/17 08:19:12;;;;;;;4.07;2.10;;;26.90;85.60;;;;;;4157056;28;20037;-65
2021/06/17 08:21:13;;;;;;;6.22;3.35;;;27.00;84.30;;;;;;4156593;28;20033;-64
2021/06/17 08:23:20;;;;;;;19.33;7.45;;;26.80;84.50;;;;;;4156018;28;20076;-60
2021/06/17 08:25:21;;;;;;;7.90;3.20;;;26.40;85.30;;;;;;4155475;28;20421;-66
2021/06/17 08:27:22;;;;;;;4.68;2.22;;;26.30;85.70;;;;;;4155669;28;20037;-62
2021/06/17 08:29:24;;;;;;;11.80;2.60;;;26.10;85.20;;;;;;4154674;28;20037;-63
2021/06/17 08:31:25;;;;;;;5.90;2.55;;;26.10;85.00;;;;;;4138503;28;20120;-62
2021/06/17 08:33:27;;;;;;;5.10;2.67;;;25.80;85.50;;;;;;4138233;28;20034;-63
2021/06/17 08:35:29;;;;;;;4.38;2.00;;;25.70;86.10;;;;;;4156731;28;20039;-63
2021/06/17 08:37:30;;;;;;;6.07;2.72;;;25.50;86.70;;;;;;4155238;28;20537;-65
2021/06/17 08:39:36;;;;;;;7.13;2.70;;;25.40;87.10;;;;;;4157152;28;20099;-62
2021/06/17 08:41:37;;;;;;;4.07;2.05;;;25.20;87.30;;;;;;4155670;28;20060;-64
2021/06/17 08:43:39;;;;;;;3.83;2.47;;;25.00;87.60;;;;;;4155650;28;20096;-64
2021/06/17 08:45:40;;;;;;;4.93;2.42;;;24.80;88.40;;;;;;4156206;28;20030;-62
2021/06/17 08:47:41;;;;;;;5.85;2.55;;;24.80;88.80;;;;;;4155865;28;20107;-65
2021/06/17 08:49:42;;;;;;;5.97;2.42;;;24.70;89.00;;;;;;4155024;28;20037;-63
2021/06/17 08:51:46;;;;;;;10.90;2.53;;;24.70;89.50;;;;;;4155288;28;20127;-64
2021/06/17 08:53:51;;;;;;;4.97;2.90;;;24.70;90.10;;;;;;4156025;28;20170;-62
2021/06/17 08:55:52;;;;;;;6.07;2.40;;;24.60;90.10;;;;;;4154654;28;20096;-62
2021/06/17 08:57:54;;;;;;;6.57;2.28;;;24.60;90.20;;;;;;4156907;28;20017;-61
2021/06/17 08:59:55;;;;;;;7.18;2.70;;;24.70;90.30;;;;;;4155146;28;20564;-64
2021/06/17 09:02:00;;;;;;;3.97;3.15;;;24.60;90.20;;;;;;4156012;28;20143;-63
2021/06/17 09:04:17;;;;;;;4.07;2.45;;;24.70;90.10;;;;;;4153896;28;20030;-62
2021/06/17 09:06:23;;;;;;;8.45;2.95;;;24.70;90.00;;;;;;4155798;28;20045;-61
2021/06/17 09:08:31;;;;;;;5.45;2.60;;;24.70;89.70;;;;;;4153803;28;20049;-62
2021/06/17 09:10:32;;;;;;;4.90;2.42;;;24.80;89.40;;;;;;4156260;28;20657;-61
2021/06/17 09:12:49;;;;;;;3.40;2.00;;;24.90;88.70;;;;;;4153947;28;20087;-63
2021/06/17 09:14:52;;;;;;;7.45;2.40;;;25.10;87.50;;;;;;4156595;28;20529;-65
2021/06/17 09:17:03;;;;;;;2.85;1.95;;;25.30;87.80;;;;;;4154760;28;20075;-61
2021/06/17 09:19:04;;;;;;;8.85;2.30;;;25.50;87.80;;;;;;4155347;28;20104;-60
2021/06/17 09:21:08;;;;;;;6.43;2.60;;;25.40;88.20;;;;;;4155286;28;20021;-67
2021/06/17 09:23:27;;;;;;;3.97;2.17;;;25.60;88.40;;;;;;4155393;28;20033;-61
2021/06/17 09:25:28;;;;;;;2.42;1.90;;;25.70;84.60;;;;;;4154514;28;20034;-64
2021/06/17 09:27:39;;;;;;;4.65;2.63;;;25.60;85.50;;;;;;4156390;28;20929;-63
2021/06/17 09:29:40;;;;;;;5.53;2.33;;;25.60;84.60;;;;;;4154562;28;20033;-61
2021/06/17 09:31:43;;;;;;;2.80;2.10;;;25.60;85.00;;;;;;4155344;28;20442;-62
2021/06/17 09:33:46;;;;;;;5.18;2.30;;;25.60;85.00;;;;;;4155002;28;20045;-62
2021/06/17 09:35:54;;;;;;;4.53;1.90;;;25.60;84.50;;;;;;4159546;28;20065;-59
2021/06/17 09:38:05;;;;;;;2.38;2.03;;;25.70;84.10;;;;;;4157540;28;20370;-61
2021/06/17 09:40:24;;;;;;;6.65;2.28;;;25.80;83.60;;;;;;4159258;28;20107;-61
2021/06/17 09:42:30;;;;;;;3.00;2.35;;;25.90;81.50;;;;;;4157926;28;20091;-60
2021/06/17 09:44:35;;;;;;;8.38;2.13;;;25.90;80.70;;;;;;4159493;28;20696;-61
2021/06/17 09:46:36;;;;;;;4.28;1.50;;;25.90;81.70;;;;;;4157272;28;20448;-63
2021/06/17 09:48:41;;;;;;;15.85;2.10;;;25.80;79.40;;;;;;4158176;28;20104;-61
2021/06/17 09:50:42;;;;;;;2.30;1.40;;;25.70;79.00;;;;;;4157909;28;20429;-60
2021/06/17 09:52:45;;;;;;;2.75;1.80;;;25.60;77.70;;;;;;4158314;28;20115;-63
2021/06/17 09:54:49;;;;;;;4.53;1.85;;;25.60;78.80;;;;;;4157962;28;20033;-62
2021/06/17 09:56:57;;;;;;;3.38;2.78;;;25.60;79.80;;;;;;4158459;28;20549;-60
2021/06/17 09:58:58;;;;;;;4.10;1.70;;;25.60;80.60;;;;;;4158111;28;20033;-63
2021/06/17 10:01:01;;;;;;;4.28;2.00;;;25.60;80.00;;;;;;4157068;28;20033;-63
2021/06/17 10:03:16;;;;;;;4.32;1.48;;;25.60;78.70;;;;;;4157576;28;20099;-64
2021/06/17 10:05:26;;;;;;;3.05;2.13;;;25.50;78.20;;;;;;4156779;28;20386;-65
2021/06/17 10:07:27;;;;;;;3.17;2.00;;;25.40;80.00;;;;;;4157907;28;20046;-64
2021/06/17 10:09:29;;;;;;;4.53;1.92;;;25.30;80.10;;;;;;4157049;28;20452;-63
2021/06/17 10:11:30;;;;;;;4.47;1.55;;;25.30;80.60;;;;;;4158842;28;20029;-62
2021/06/17 10:13:32;;;;;;;2.20;1.98;;;25.30;80.60;;;;;;4156747;28;20050;-63
2021/06/17 10:15:33;;;;;;;3.10;1.85;;;25.40;81.20;;;;;;4141613;28;20060;-62
2021/06/17 10:17:35;;;;;;;6.32;2.05;;;25.40;81.70;;;;;;4157960;28;20036;-63
2021/06/17 10:19:37;;;;;;;6.28;1.73;;;25.50;82.30;;;;;;4140855;28;20041;-59
2021/06/17 10:21:39;;;;;;;4.32;1.80;;;25.50;81.70;;;;;;4157877;28;20110;-62
2021/06/17 10:23:45;;;;;;;1.92;1.73;;;25.60;81.00;;;;;;4157496;28;20041;-65
2021/06/17 10:25:48;;;;;;;5.00;1.65;;;25.60;81.30;;;;;;4156395;28;20049;-65
2021/06/17 10:27:57;;;;;;;3.08;1.70;;;25.50;81.10;;;;;;4158176;28;20104;-65
2021/06/17 10:29:58;;;;;;;2.55;1.88;;;25.50;81.00;;;;;;4156192;28;20390;-63
2021/06/17 10:32:02;;;;;;;3.42;2.08;;;25.50;80.90;;;;;;4158884;28;20461;-66
2021/06/17 10:36:37;;;;;;;4.40;2.38;;;25.60;81.90;;;;;;4159182;28;20099;-65
2021/06/17 10:39:09;;;;;;;2.63;1.95;;;25.80;81.90;;;;;;4156285;28;20041;-64
2021/06/17 10:41:13;;;;;;;5.05;2.10;;;25.80;82.70;;;;;;4157952;28;20545;-63
2021/06/17 10:43:20;;;;;;;5.30;2.00;;;25.90;82.20;;;;;;4156205;28;20753;-65
2021/06/17 10:45:45;;;;;;;7.03;3.70;;;25.90;82.40;;;;;;4157778;28;20029;-63
2021/06/17 10:47:47;;;;;;;5.00;1.90;;;26.10;82.00;;;;;;4156266;28;20211;-64
2021/06/17 10:49:51;;;;;;;4.68;1.88;;;26.20;80.60;;;;;;4158652;28;20072;-63